sensor_id;sensor_type;location;lat;lon;timestamp;pressure;altitude;pressure_sealevel;temperature;humidity
27040;BME280;14589;51.578;7.306;2023-12-07T00:01:48;101528.03;;;1.85;100.00
27040;BME280;14589;51.578;7.306;2023-12-07T00:04:18;101539.69;;;1.84;100.00
27040;BME280;14589;51.578;7.306;2023-12-07T00:06:49;101526.44;;;1.81;100.00
27040;BME280;14589;51.578;7.306;2023-12-07T00:09:19;101531.78;;;1.81;100.00
27040;BME280;14589;51.578;7.306;2023-12-07T00:11:50;101531.66;;;1.84;100.00
27040;BME280;14589;51.578;7.306;2023-12-07T00:14:20;101535.28;;;1.83;100.00
27040;BME280;14589;51.578;7.306;2023-12-07T00:16:51;101531.00;;;1.79;100.00
27040;BME280;14589;51.578;7.306;2023-12-07T00:19:21;101530.84;;;1.82;100.00
27040;BME280;14589;51.578;7.306;2023-12-07T00:21:51;101531.09;;;1.78;100.00
27040;BME280;14589;51.578;7.306;2023-12-07T00:24:22;101536.34;;;1.79;100.00
27040;BME280;14589;51.578;7.306;2023-12-07T00:26:52;101539.00;;;1.79;100.00
27040;BME280;14589;51.578;7.306;2023-12-07T00:29:22;101533.75;;;1.78;100.00
27040;BME280;14589;51.578;7.306;2023-12-07T00:31:53;101525.88;;;1.75;100.00
27040;BME280;14589;51.578;7.306;2023-12-07T00:34:23;101538.25;;;1.77;100.00
27040;BME280;14589;51.578;7.306;2023-12-07T00:36:53;101551.59;;;1.77;100.00
27040;BME280;14589;51.578;7.306;2023-12-07T00:39:24;101544.34;;;1.79;100.00
27040;BME280;14589;51.578;7.306;2023-12-07T00:41:54;101540.09;;;1.75;100.00
27040;BME280;14589;51.578;7.306;2023-12-07T00:44:25;101550.56;;;1.80;100.00
27040;BME280;14589;51.578;7.306;2023-12-07T00:46:55;101549.88;;;1.76;100.00
27040;BME280;14589;51.578;7.306;2023-12-07T00:49:26;101544.34;;;1.79;100.00
27040;BME280;14589;51.578;7.306;2023-12-07T00:51:56;101539.88;;;1.80;100.00
27040;BME280;14589;51.578;7.306;2023-12-07T00:54:27;101553.19;;;1.81;100.00
27040;BME280;14589;51.578;7.306;2023-12-07T00:56:57;101551.38;;;1.82;100.00
27040;BME280;14589;51.578;7.306;2023-12-07T00:59:28;101549.63;;;1.81;100.00
27040;BME280;14589;51.578;7.306;2023-12-07T01:02:04;101552.31;;;1.81;100.00
27040;BME280;14589;51.578;7.306;2023-12-07T01:04:35;101540.03;;;1.77;100.00
27040;BME280;14589;51.578;7.306;2023-12-07T01:07:05;101550.56;;;1.80;100.00
27040;BME280;14589;51.578;7.306;2023-12-07T01:09:38;101555.78;;;1.83;100.00
27040;BME280;14589;51.578;7.306;2023-12-07T01:12:09;101548.69;;;1.82;100.00
27040;BME280;14589;51.578;7.306;2023-12-07T01:14:39;101559.09;;;1.88;100.00
27040;BME280;14589;51.578;7.306;2023-12-07T01:17:10;101556.50;;;1.86;100.00
27040;BME280;14589;51.578;7.306;2023-12-07T01:19:40;101550.28;;;1.86;100.00
27040;BME280;14589;51.578;7.306;2023-12-07T01:22:11;101554.84;;;1.84;100.00
27040;BME280;14589;51.578;7.306;2023-12-07T01:24:41;101552.75;;;1.90;100.00
27040;BME280;14589;51.578;7.306;2023-12-07T01:27:11;101545.09;;;1.83;100.00
27040;BME280;14589;51.578;7.306;2023-12-07T01:29:42;101558.41;;;1.84;100.00
27040;BME280;14589;51.578;7.306;2023-12-07T01:32:12;101567.13;;;1.88;100.00
27040;BME280;14589;51.578;7.306;2023-12-07T01:34:43;101558.31;;;1.86;100.00
27040;BME280;14589;51.578;7.306;2023-12-07T01:37:17;101562.59;;;1.90;100.00
27040;BME280;14589;51.578;7.306;2023-12-07T01:39:47;101569.75;;;1.89;100.00
27040;BME280;14589;51.578;7.306;2023-12-07T01:42:18;101569.75;;;1.89;100.00
27040;BME280;14589;51.578;7.306;2023-12-07T01:44:48;101571.31;;;1.93;100.00
27040;BME280;14589;51.578;7.306;2023-12-07T01:47:19;101559.81;;;1.91;100.00
27040;BME280;14589;51.578;7.306;2023-12-07T01:49:49;101564.31;;;1.91;100.00
27040;BME280;14589;51.578;7.306;2023-12-07T01:52:20;101562.50;;;1.91;100.00
27040;BME280;14589;51.578;7.306;2023-12-07T01:54:53;101572.41;;;1.89;100.00
27040;BME280;14589;51.578;7.306;2023-12-07T01:57:25;101571.25;;;1.95;100.00
27040;BME280;14589;51.578;7.306;2023-12-07T01:59:55;101578.91;;;2.02;100.00
27040;BME280;14589;51.578;7.306;2023-12-07T02:02:26;101567.84;;;1.91;100.00
27040;BME280;14589;51.578;7.306;2023-12-07T02:04:56;101574.84;;;1.94;100.00
27040;BME280;14589;51.578;7.306;2023-12-07T02:07:27;101579.34;;;1.93;100.00
27040;BME280;14589;51.578;7.306;2023-12-07T02:09:58;101573.19;;;1.91;100.00
27040;BME280;14589;51.578;7.306;2023-12-07T02:12:28;101567.78;;;1.93;100.00
27040;BME280;14589;51.578;7.306;2023-12-07T02:15:02;101566.69;;;1.97;100.00
27040;BME280;14589;51.578;7.306;2023-12-07T02:17:35;101577.47;;;1.95;100.00
27040;BME280;14589;51.578;7.306;2023-12-07T02:20:12;101583.69;;;1.96;100.00
27040;BME280;14589;51.578;7.306;2023-12-07T02:23:01;101579.34;;;1.93;100.00
27040;BME280;14589;51.578;7.306;2023-12-07T02:25:40;101581.88;;;1.96;100.00
27040;BME280;14589;51.578;7.306;2023-12-07T02:28:12;101587.22;;;1.96;100.00
27040;BME280;14589;51.578;7.306;2023-12-07T02:30:42;101588.09;;;1.97;100.00
27040;BME280;14589;51.578;7.306;2023-12-07T02:33:13;101588.09;;;1.97;100.00
27040;BME280;14589;51.578;7.306;2023-12-07T02:35:44;101597.63;;;2.02;100.00
27040;BME280;14589;51.578;7.306;2023-12-07T02:38:15;101584.47;;;1.98;100.00
27040;BME280;14589;51.578;7.306;2023-12-07T02:40:48;101594.22;;;1.99;100.00
27040;BME280;14589;51.578;7.306;2023-12-07T02:43:19;101597.13;;;1.94;100.00
27040;BME280;14589;51.578;7.306;2023-12-07T02:45:50;101584.69;;;1.93;100.00
27040;BME280;14589;51.578;7.306;2023-12-07T02:48:21;101587.28;;;1.95;100.00
27040;BME280;14589;51.578;7.306;2023-12-07T02:50:54;101598.69;;;1.98;100.00
27040;BME280;14589;51.578;7.306;2023-12-07T02:53:25;101596.91;;;1.99;100.00
27040;BME280;14589;51.578;7.306;2023-12-07T02:55:55;101601.31;;;2.00;100.00
27040;BME280;14589;51.578;7.306;2023-12-07T02:58:26;101588.09;;;1.97;100.00
27040;BME280;14589;51.578;7.306;2023-12-07T03:00:56;101591.66;;;1.97;100.00
27040;BME280;14589;51.578;7.306;2023-12-07T03:03:27;101600.59;;;1.96;100.00
27040;BME280;14589;51.578;7.306;2023-12-07T03:05:57;101590.03;;;1.93;100.00
27040;BME280;14589;51.578;7.306;2023-12-07T03:08:27;101592.88;;;1.90;100.00
27040;BME280;14589;51.578;7.306;2023-12-07T03:10:58;101587.44;;;1.92;100.00
27040;BME280;14589;51.578;7.306;2023-12-07T03:13:29;101587.44;;;1.92;100.00
27040;BME280;14589;51.578;7.306;2023-12-07T03:15:59;101591.13;;;1.89;100.00
27040;BME280;14589;51.578;7.306;2023-12-07T03:18:30;101588.47;;;1.89;100.00
27040;BME280;14589;51.578;7.306;2023-12-07T03:21:01;101577.88;;;1.86;100.00
27040;BME280;14589;51.578;7.306;2023-12-07T03:23:33;101580.56;;;1.86;100.00
27040;BME280;14589;51.578;7.306;2023-12-07T03:26:03;101580.38;;;1.91;100.00
27040;BME280;14589;51.578;7.306;2023-12-07T03:28:34;101578.63;;;1.90;100.00
27040;BME280;14589;51.578;7.306;2023-12-07T03:31:05;101570.91;;;1.84;100.00
27040;BME280;14589;51.578;7.306;2023-12-07T03:33:35;101568.94;;;1.87;100.00
27040;BME280;14589;51.578;7.306;2023-12-07T03:36:06;101559.97;;;1.88;100.00
27040;BME280;14589;51.578;7.306;2023-12-07T03:38:37;101558.31;;;1.86;100.00
27040;BME280;14589;51.578;7.306;2023-12-07T03:41:08;101577.53;;;1.94;100.00
27040;BME280;14589;51.578;7.306;2023-12-07T03:43:38;101588.28;;;1.92;100.00
27040;BME280;14589;51.578;7.306;2023-12-07T03:46:08;101585.78;;;1.89;100.00
27040;BME280;14589;51.578;7.306;2023-12-07T03:48:39;101577.75;;;1.89;100.00
27040;BME280;14589;51.578;7.306;2023-12-07T03:51:12;101585.78;;;1.89;100.00
27040;BME280;14589;51.578;7.306;2023-12-07T03:53:43;101592.00;;;1.90;100.00
27040;BME280;14589;51.578;7.306;2023-12-07T03:56:27;101594.75;;;1.88;100.00
27040;BME280;14589;51.578;7.306;2023-12-07T03:58:57;101581.50;;;1.85;100.00
27040;BME280;14589;51.578;7.306;2023-12-07T04:01:28;101593.94;;;1.86;100.00
27040;BME280;14589;51.578;7.306;2023-12-07T04:03:59;101586.06;;;1.83;100.00
27040;BME280;14589;51.578;7.306;2023-12-07T04:06:30;101584.28;;;1.84;100.00
27040;BME280;14589;51.578;7.306;2023-12-07T04:09:01;101592.34;;;1.82;100.00
27040;BME280;14589;51.578;7.306;2023-12-07T04:11:31;101587.28;;;1.76;100.00
27040;BME280;14589;51.578;7.306;2023-12-07T04:14:02;101595.16;;;1.79;100.00
27040;BME280;14589;51.578;7.306;2023-12-07T04:16:32;101594.44;;;1.76;100.00
27040;BME280;14589;51.578;7.306;2023-12-07T04:19:02;101598.00;;;1.76;100.00
27040;BME280;14589;51.578;7.306;2023-12-07T04:21:33;101603.41;;;1.75;100.00
27040;BME280;14589;51.578;7.306;2023-12-07T04:24:04;101616.75;;;1.75;100.00
27040;BME280;14589;51.578;7.306;2023-12-07T04:26:34;101617.78;;;1.72;100.00
27040;BME280;14589;51.578;7.306;2023-12-07T04:29:04;101602.91;;;1.67;100.00
27040;BME280;14589;51.578;7.306;2023-12-07T04:31:35;101621.53;;;1.68;100.00
27040;BME280;14589;51.578;7.306;2023-12-07T04:34:06;101608.09;;;1.70;100.00
27040;BME280;14589;51.578;7.306;2023-12-07T04:36:36;101605.66;;;1.65;100.00
27040;BME280;14589;51.578;7.306;2023-12-07T04:39:07;101607.44;;;1.65;100.00
27040;BME280;14589;51.578;7.306;2023-12-07T04:41:38;101620.75;;;1.66;100.00
27040;BME280;14589;51.578;7.306;2023-12-07T04:44:08;101621.69;;;1.65;100.00
27040;BME280;14589;51.578;7.306;2023-12-07T04:46:39;101624.34;;;1.65;100.00
27040;BME280;14589;51.578;7.306;2023-12-07T04:49:09;101634.88;;;1.68;100.00
27040;BME280;14589;51.578;7.306;2023-12-07T04:51:39;101627.97;;;1.64;100.00
27040;BME280;14589;51.578;7.306;2023-12-07T04:54:12;101627.03;;;1.65;100.00
27040;BME280;14589;51.578;7.306;2023-12-07T04:56:44;101630.56;;;1.66;100.00
27040;BME280;14589;51.578;7.306;2023-12-07T04:59:15;101634.25;;;1.63;100.00
27040;BME280;14589;51.578;7.306;2023-12-07T05:01:47;101626.22;;;1.63;100.00
27040;BME280;14589;51.578;7.306;2023-12-07T05:04:17;101629.63;;;1.67;100.00
27040;BME280;14589;51.578;7.306;2023-12-07T05:06:47;101622.56;;;1.66;100.00
27040;BME280;14589;51.578;7.306;2023-12-07T05:09:18;101625.28;;;1.64;100.00
27040;BME280;14589;51.578;7.306;2023-12-07T05:11:48;101620.81;;;1.65;100.00
27040;BME280;14589;51.578;7.306;2023-12-07T05:14:19;101629.47;;;1.70;100.00
27040;BME280;14589;51.578;7.306;2023-12-07T05:16:49;101623.41;;;1.66;100.00
27040;BME280;14589;51.578;7.306;2023-12-07T05:19:24;101626.75;;;1.71;100.00
27040;BME280;14589;51.578;7.306;2023-12-07T05:21:54;101630.13;;;1.75;100.00
27040;BME280;14589;51.578;7.306;2023-12-07T05:24:25;101624.84;;;1.73;100.00
27040;BME280;14589;51.578;7.306;2023-12-07T05:26:55;101631.75;;;1.79;100.00
27040;BME280;14589;51.578;7.306;2023-12-07T05:29:26;101622.84;;;1.78;100.00
27040;BME280;14589;51.578;7.306;2023-12-07T05:31:56;101620.97;;;1.80;100.00
27040;BME280;14589;51.578;7.306;2023-12-07T05:34:27;101638.53;;;1.86;100.00
27040;BME280;14589;51.578;7.306;2023-12-07T05:36:57;101627.13;;;1.82;100.00
27040;BME280;14589;51.578;7.306;2023-12-07T05:39:27;101640.25;;;1.87;100.00
27040;BME280;14589;51.578;7.306;2023-12-07T05:41:58;101633.09;;;1.87;100.00
27040;BME280;14589;51.578;7.306;2023-12-07T05:44:28;101632.00;;;1.91;100.00
27040;BME280;14589;51.578;7.306;2023-12-07T05:47:00;101641.78;;;1.92;100.00
27040;BME280;14589;51.578;7.306;2023-12-07T05:49:30;101642.47;;;1.97;100.00
27040;BME280;14589;51.578;7.306;2023-12-07T05:52:00;101641.50;;;1.98;100.00
27040;BME280;14589;51.578;7.306;2023-12-07T05:54:31;101639.69;;;1.99;100.00
27040;BME280;14589;51.578;7.306;2023-12-07T05:57:02;101644.63;;;2.08;100.00
27040;BME280;14589;51.578;7.306;2023-12-07T05:59:32;101637.75;;;2.02;100.00
27040;BME280;14589;51.578;7.306;2023-12-07T06:02:06;101631.75;;;1.97;100.00
27040;BME280;14589;51.578;7.306;2023-12-07T06:04:36;101624.56;;;1.98;100.00
27040;BME280;14589;51.578;7.306;2023-12-07T06:07:08;101624.56;;;1.98;100.00
27040;BME280;14589;51.578;7.306;2023-12-07T06:09:38;101632.41;;;2.02;100.00
27040;BME280;14589;51.578;7.306;2023-12-07T06:12:08;101631.38;;;2.05;100.00
27040;BME280;14589;51.578;7.306;2023-12-07T06:14:39;101639.91;;;2.13;100.00
27040;BME280;14589;51.578;7.306;2023-12-07T06:17:09;101643.59;;;2.11;100.00
27040;BME280;14589;51.578;7.306;2023-12-07T06:19:39;101638.34;;;2.09;100.00
27040;BME280;14589;51.578;7.306;2023-12-07T06:22:10;101630.22;;;2.11;100.00
27040;BME280;14589;51.578;7.306;2023-12-07T06:24:41;101635.38;;;2.15;100.00
27040;BME280;14589;51.578;7.306;2023-12-07T06:27:11;101647.88;;;2.15;100.00
27040;BME280;14589;51.578;7.306;2023-12-07T06:29:42;101639.69;;;2.18;100.00
27040;BME280;14589;51.578;7.306;2023-12-07T06:32:12;101625.44;;;2.17;100.00
27040;BME280;14589;51.578;7.306;2023-12-07T06:34:44;101630.09;;;2.14;100.00
27040;BME280;14589;51.578;7.306;2023-12-07T06:37:15;101630.88;;;2.16;100.00
27040;BME280;14589;51.578;7.306;2023-12-07T06:39:47;101638.75;;;2.19;100.00
27040;BME280;14589;51.578;7.306;2023-12-07T06:42:19;101626.75;;;2.09;100.00
27040;BME280;14589;51.578;7.306;2023-12-07T06:44:49;101639.69;;;2.18;100.00
27040;BME280;14589;51.578;7.306;2023-12-07T06:47:20;101632.75;;;2.14;100.00
27040;BME280;14589;51.578;7.306;2023-12-07T06:49:50;101628.22;;;2.16;100.00
27040;BME280;14589;51.578;7.306;2023-12-07T06:52:20;101624.72;;;2.14;100.00
27040;BME280;14589;51.578;7.306;2023-12-07T06:54:51;101625.44;;;2.17;100.00
27040;BME280;14589;51.578;7.306;2023-12-07T06:57:21;101636.44;;;2.11;100.00
27040;BME280;14589;51.578;7.306;2023-12-07T06:59:51;101623.44;;;2.03;100.00
27040;BME280;14589;51.578;7.306;2023-12-07T07:02:22;101624.78;;;1.93;100.00
27040;BME280;14589;51.578;7.306;2023-12-07T07:04:53;101629.50;;;1.88;100.00
27040;BME280;14589;51.578;7.306;2023-12-07T07:07:23;101633.41;;;1.81;100.00
27040;BME280;14589;51.578;7.306;2023-12-07T07:09:54;101618.06;;;1.66;100.00
27040;BME280;14589;51.578;7.306;2023-12-07T07:12:24;101627.31;;;1.59;100.00
27040;BME280;14589;51.578;7.306;2023-12-07T07:14:55;101625.97;;;1.49;100.00
27040;BME280;14589;51.578;7.306;2023-12-07T07:17:25;101624.44;;;1.43;100.00
27040;BME280;14589;51.578;7.306;2023-12-07T07:19:55;101624.81;;;1.36;100.00
27040;BME280;14589;51.578;7.306;2023-12-07T07:22:26;101623.41;;;1.27;100.00
27040;BME280;14589;51.578;7.306;2023-12-07T07:24:56;101600.63;;;1.18;100.00
27040;BME280;14589;51.578;7.306;2023-12-07T07:27:26;101622.25;;;1.12;100.00
27040;BME280;14589;51.578;7.306;2023-12-07T07:29:57;101609.84;;;1.11;100.00
27040;BME280;14589;51.578;7.306;2023-12-07T07:32:27;101621.66;;;1.06;100.00
27040;BME280;14589;51.578;7.306;2023-12-07T07:34:57;101621.03;;;0.99;100.00
27040;BME280;14589;51.578;7.306;2023-12-07T07:37:28;101623.06;;;0.94;100.00
27040;BME280;14589;51.578;7.306;2023-12-07T07:39:58;101616.13;;;0.90;100.00
27040;BME280;14589;51.578;7.306;2023-12-07T07:42:30;101619.00;;;0.86;100.00
27040;BME280;14589;51.578;7.306;2023-12-07T07:45:00;101612.91;;;0.82;100.00
27040;BME280;14589;51.578;7.306;2023-12-07T07:47:30;101611.41;;;0.75;100.00
27040;BME280;14589;51.578;7.306;2023-12-07T07:50:01;101616.09;;;0.70;100.00
27040;BME280;14589;51.578;7.306;2023-12-07T07:52:35;101628.50;;;0.71;100.00
27040;BME280;14589;51.578;7.306;2023-12-07T07:55:06;101616.22;;;0.67;100.00
27040;BME280;14589;51.578;7.306;2023-12-07T07:57:37;101620.75;;;0.65;100.00
27040;BME280;14589;51.578;7.306;2023-12-07T08:00:08;101623.31;;;0.68;100.00
27040;BME280;14589;51.578;7.306;2023-12-07T08:02:38;101611.69;;;0.69;100.00
27040;BME280;14589;51.578;7.306;2023-12-07T08:05:09;101614.22;;;0.72;100.00
27040;BME280;14589;51.578;7.306;2023-12-07T08:07:39;101616.75;;;0.75;100.00
27040;BME280;14589;51.578;7.306;2023-12-07T08:10:10;101616.44;;;0.82;100.00
27040;BME280;14589;51.578;7.306;2023-12-07T08:12:41;101605.72;;;0.84;100.00
27040;BME280;14589;51.578;7.306;2023-12-07T08:15:11;101598.31;;;0.91;100.00
27040;BME280;14589;51.578;7.306;2023-12-07T08:17:42;101612.97;;;1.01;100.00
27040;BME280;14589;51.578;7.306;2023-12-07T08:20:13;101614.59;;;1.05;100.00
27040;BME280;14589;51.578;7.306;2023-12-07T08:22:45;101617.00;;;1.11;100.00
27040;BME280;14589;51.578;7.306;2023-12-07T08:25:15;101599.16;;;1.11;100.00
27040;BME280;14589;51.578;7.306;2023-12-07T08:27:47;101602.03;;;1.27;100.00
27040;BME280;14589;51.578;7.306;2023-12-07T08:30:17;101601.75;;;1.33;100.00
27040;BME280;14589;51.578;7.306;2023-12-07T08:32:50;101614.63;;;1.44;100.00
27040;BME280;14589;51.578;7.306;2023-12-07T08:35:20;101617.09;;;1.48;100.00
27040;BME280;14589;51.578;7.306;2023-12-07T08:37:51;101614.00;;;1.57;100.00
27040;BME280;14589;51.578;7.306;2023-12-07T08:40:22;101608.25;;;1.67;100.00
27040;BME280;14589;51.578;7.306;2023-12-07T08:42:54;101612.16;;;1.78;100.00
27040;BME280;14589;51.578;7.306;2023-12-07T08:45:24;101610.91;;;1.85;100.00
27040;BME280;14589;51.578;7.306;2023-12-07T08:47:55;101614.25;;;1.90;100.00
27040;BME280;14589;51.578;7.306;2023-12-07T08:50:25;101623.56;;;2.00;100.00
27040;BME280;14589;51.578;7.306;2023-12-07T08:52:55;101617.88;;;2.08;100.00
27040;BME280;14589;51.578;7.306;2023-12-07T08:55:26;101617.34;;;2.19;100.00
27040;BME280;14589;51.578;7.306;2023-12-07T08:57:56;101614.06;;;2.31;100.00
27040;BME280;14589;51.578;7.306;2023-12-07T09:00:27;101618.19;;;2.38;100.00
27040;BME280;14589;51.578;7.306;2023-12-07T09:02:57;101624.53;;;2.54;100.00
27040;BME280;14589;51.578;7.306;2023-12-07T09:05:28;101633.13;;;2.61;100.00
27040;BME280;14589;51.578;7.306;2023-12-07T09:07:58;101627.56;;;2.65;100.00
27040;BME280;14589;51.578;7.306;2023-12-07T09:10:28;101639.06;;;2.84;100.00
27040;BME280;14589;51.578;7.306;2023-12-07T09:12:59;101638.75;;;2.91;100.00
27040;BME280;14589;51.578;7.306;2023-12-07T09:15:31;101642.84;;;2.98;100.00
27040;BME280;14589;51.578;7.306;2023-12-07T09:18:01;101627.00;;;3.10;100.00
27040;BME280;14589;51.578;7.306;2023-12-07T09:20:32;101637.47;;;3.15;100.00
27040;BME280;14589;51.578;7.306;2023-12-07T09:23:03;101637.66;;;3.29;100.00
27040;BME280;14589;51.578;7.306;2023-12-07T09:25:34;101626.84;;;3.31;100.00
27040;BME280;14589;51.578;7.306;2023-12-07T09:28:05;101632.19;;;3.48;100.00
27040;BME280;14589;51.578;7.306;2023-12-07T09:30:35;101629.44;;;3.49;100.00
27040;BME280;14589;51.578;7.306;2023-12-07T09:33:06;101620.97;;;3.57;100.00
27040;BME280;14589;51.578;7.306;2023-12-07T09:35:36;101614.09;;;3.69;100.00
27040;BME280;14589;51.578;7.306;2023-12-07T09:38:07;101625.44;;;3.74;100.00
27040;BME280;14589;51.578;7.306;2023-12-07T09:40:37;101625.69;;;3.85;100.00
27040;BME280;14589;51.578;7.306;2023-12-07T09:43:07;101625.22;;;3.94;100.00
27040;BME280;14589;51.578;7.306;2023-12-07T09:45:38;101611.47;;;4.00;100.00
27040;BME280;14589;51.578;7.306;2023-12-07T09:48:09;101617.97;;;4.12;100.00
27040;BME280;14589;51.578;7.306;2023-12-07T09:50:39;101610.69;;;4.29;100.00
27040;BME280;14589;51.578;7.306;2023-12-07T09:53:10;101616.13;;;4.43;100.00
27040;BME280;14589;51.578;7.306;2023-12-07T09:55:40;101617.09;;;4.42;100.00
27040;BME280;14589;51.578;7.306;2023-12-07T09:58:10;101605.19;;;4.46;100.00
27040;BME280;14589;51.578;7.306;2023-12-07T10:00:42;101597.38;;;4.58;100.00
27040;BME280;14589;51.578;7.306;2023-12-07T10:03:23;101599.63;;;4.65;100.00
27040;BME280;14589;51.578;7.306;2023-12-07T10:05:58;101591.28;;;4.70;100.00
27040;BME280;14589;51.578;7.306;2023-12-07T10:08:32;101593.81;;;4.73;100.00
27040;BME280;14589;51.578;7.306;2023-12-07T10:11:08;101586.94;;;4.83;100.00
27040;BME280;14589;51.578;7.306;2023-12-07T10:13:38;101580.88;;;4.79;100.00
27040;BME280;14589;51.578;7.306;2023-12-07T10:16:13;101567.81;;;4.73;100.00
27040;BME280;14589;51.578;7.306;2023-12-07T10:18:48;101539.72;;;4.79;100.00
27040;BME280;14589;51.578;7.306;2023-12-07T10:21:34;101546.84;;;4.94;100.00
27040;BME280;14589;51.578;7.306;2023-12-07T10:24:05;101570.69;;;5.14;100.00
27040;BME280;14589;51.578;7.306;2023-12-07T10:26:37;101564.84;;;5.22;100.00
27040;BME280;14589;51.578;7.306;2023-12-07T10:29:09;101559.00;;;5.29;100.00
27040;BME280;14589;51.578;7.306;2023-12-07T10:31:40;101558.25;;;5.42;99.42
27040;BME280;14589;51.578;7.306;2023-12-07T10:34:10;101544.81;;;5.42;96.51
27040;BME280;14589;51.578;7.306;2023-12-07T10:36:40;101550.06;;;5.57;95.48
27040;BME280;14589;51.578;7.306;2023-12-07T10:39:11;101539.41;;;5.56;94.10
27040;BME280;14589;51.578;7.306;2023-12-07T10:41:43;101526.34;;;5.64;94.33
27040;BME280;14589;51.578;7.306;2023-12-07T10:44:13;101534.00;;;5.70;95.70
27040;BME280;14589;51.578;7.306;2023-12-07T10:46:45;101528.47;;;5.73;92.38
27040;BME280;14589;51.578;7.306;2023-12-07T10:49:17;101529.41;;;5.86;91.90
27040;BME280;14589;51.578;7.306;2023-12-07T10:51:52;101520.84;;;5.80;90.12
27040;BME280;14589;51.578;7.306;2023-12-07T10:54:27;101512.28;;;5.87;89.66
27040;BME280;14589;51.578;7.306;2023-12-07T10:57:01;101520.38;;;5.87;91.51
27040;BME280;14589;51.578;7.306;2023-12-07T10:59:36;101509.19;;;5.93;90.91
27040;BME280;14589;51.578;7.306;2023-12-07T11:02:08;101503.78;;;6.07;87.26
27040;BME280;14589;51.578;7.306;2023-12-07T11:04:41;101491.28;;;6.06;86.54
27040;BME280;14589;51.578;7.306;2023-12-07T11:07:14;101495.94;;;6.04;86.30
27040;BME280;14589;51.578;7.306;2023-12-07T11:09:56;101488.66;;;6.19;84.54
27040;BME280;14589;51.578;7.306;2023-12-07T11:15:51;101482.75;;;6.27;80.49
27040;BME280;14589;51.578;7.306;2023-12-07T11:18:27;101475.84;;;6.23;81.70
27040;BME280;14589;51.578;7.306;2023-12-07T11:20:58;101483.53;;;6.29;80.75
27040;BME280;14589;51.578;7.306;2023-12-07T11:23:28;101478.03;;;6.43;80.24
27040;BME280;14589;51.578;7.306;2023-12-07T11:25:59;101477.94;;;6.44;81.01
27040;BME280;14589;51.578;7.306;2023-12-07T11:28:35;101469.78;;;6.46;79.83
27040;BME280;14589;51.578;7.306;2023-12-07T11:31:07;101457.72;;;6.52;80.26
27040;BME280;14589;51.578;7.306;2023-12-07T11:33:38;101452.75;;;6.45;77.92
27040;BME280;14589;51.578;7.306;2023-12-07T11:36:11;101450.69;;;6.49;77.47
27040;BME280;14589;51.578;7.306;2023-12-07T11:41:39;101438.09;;;6.62;76.46
27040;BME280;14589;51.578;7.306;2023-12-07T11:44:10;101433.13;;;6.56;75.46
27040;BME280;14589;51.578;7.306;2023-12-07T11:46:42;101421.41;;;6.70;75.57
27040;BME280;14589;51.578;7.306;2023-12-07T11:49:12;101420.53;;;6.69;74.97
27040;BME280;14589;51.578;7.306;2023-12-07T11:51:43;101418.81;;;6.68;76.27
27040;BME280;14589;51.578;7.306;2023-12-07T11:54:15;101415.91;;;6.71;73.43
27040;BME280;14589;51.578;7.306;2023-12-07T11:56:52;101401.16;;;6.64;72.81
27040;BME280;14589;51.578;7.306;2023-12-07T11:59:22;101389.16;;;6.56;72.43
27040;BME280;14589;51.578;7.306;2023-12-07T12:01:59;101389.59;;;6.62;72.53
27040;BME280;14589;51.578;7.306;2023-12-07T12:04:29;101389.06;;;6.57;73.65
27040;BME280;14589;51.578;7.306;2023-12-07T12:07:00;101392.97;;;6.66;72.92
27040;BME280;14589;51.578;7.306;2023-12-07T12:09:30;101387.44;;;6.55;73.16
27040;BME280;14589;51.578;7.306;2023-12-07T12:12:01;101387.56;;;6.53;72.74
27040;BME280;14589;51.578;7.306;2023-12-07T12:14:31;101389.81;;;6.34;73.85
27040;BME280;14589;51.578;7.306;2023-12-07T12:17:02;101381.69;;;6.21;74.62
27040;BME280;14589;51.578;7.306;2023-12-07T12:19:32;101387.19;;;6.20;75.87
27040;BME280;14589;51.578;7.306;2023-12-07T12:22:06;101387.81;;;6.11;76.37
27040;BME280;14589;51.578;7.306;2023-12-07T12:24:37;101377.25;;;6.07;76.77
27040;BME280;14589;51.578;7.306;2023-12-07T12:27:09;101369.03;;;5.96;77.09
27040;BME280;14589;51.578;7.306;2023-12-07T12:29:40;101360.69;;;5.87;78.15
27040;BME280;14589;51.578;7.306;2023-12-07T12:32:10;101366.59;;;5.79;77.65
27040;BME280;14589;51.578;7.306;2023-12-07T12:34:41;101356.44;;;5.70;78.92
27040;BME280;14589;51.578;7.306;2023-12-07T12:37:11;101358.88;;;5.60;79.15
27040;BME280;14589;51.578;7.306;2023-12-07T12:39:42;101349.19;;;5.58;79.92
27040;BME280;14589;51.578;7.306;2023-12-07T12:42:12;101368.97;;;5.57;80.61
27040;BME280;14589;51.578;7.306;2023-12-07T12:44:43;101358.44;;;5.54;80.50
27040;BME280;14589;51.578;7.306;2023-12-07T12:47:13;101350.94;;;5.45;80.66
27040;BME280;14589;51.578;7.306;2023-12-07T12:49:44;101346.75;;;5.41;81.73
27040;BME280;14589;51.578;7.306;2023-12-07T12:52:15;101351.34;;;5.39;82.34
27040;BME280;14589;51.578;7.306;2023-12-07T12:54:49;101349.84;;;5.35;80.88
27040;BME280;14589;51.578;7.306;2023-12-07T12:57:20;101354.84;;;5.26;81.35
27040;BME280;14589;51.578;7.306;2023-12-07T12:59:51;101339.09;;;5.20;82.27
27040;BME280;14589;51.578;7.306;2023-12-07T13:02:22;101338.81;;;5.25;82.57
27040;BME280;14589;51.578;7.306;2023-12-07T13:04:52;101336.50;;;5.19;82.36
27040;BME280;14589;51.578;7.306;2023-12-07T13:07:22;101324.09;;;5.04;83.30
27040;BME280;14589;51.578;7.306;2023-12-07T13:09:54;101326.78;;;5.04;83.75
27040;BME280;14589;51.578;7.306;2023-12-07T13:12:24;101320.91;;;4.97;84.72
27040;BME280;14589;51.578;7.306;2023-12-07T13:14:58;101338.94;;;5.09;82.66
27040;BME280;14589;51.578;7.306;2023-12-07T13:17:28;101334.63;;;5.07;80.33
27040;BME280;14589;51.578;7.306;2023-12-07T13:19:59;101330.72;;;4.98;80.66